sensor_id;sensor_type;location;lat;lon;timestamp;P1;durP1;ratioP1;P2;durP2;ratioP2
73938;SDS011;62291;47.554;8.504;2023-07-16T00:01:05;2.75;;;0.80;;
73938;SDS011;62291;47.554;8.504;2023-07-16T00:03:31;2.38;;;0.70;;
73938;SDS011;62291;47.554;8.504;2023-07-16T00:05:56;3.13;;;0.80;;
73938;SDS011;62291;47.554;8.504;2023-07-16T00:08:22;4.38;;;1.05;;
73938;SDS011;62291;47.554;8.504;2023-07-16T00:10:48;1.38;;;0.70;;
73938;SDS011;62291;47.554;8.504;2023-07-16T00:13:14;9.75;;;1.15;;
73938;SDS011;62291;47.554;8.504;2023-07-16T00:15:39;1.75;;;1.17;;
73938;SDS011;62291;47.554;8.504;2023-07-16T00:18:05;1.98;;;0.98;;
73938;SDS011;62291;47.554;8.504;2023-07-16T00:20:31;2.08;;;0.90;;
73938;SDS011;62291;47.554;8.504;2023-07-16T00:22:57;2.63;;;1.08;;
73938;SDS011;62291;47.554;8.504;2023-07-16T00:25:23;2.17;;;1.02;;
73938;SDS011;62291;47.554;8.504;2023-07-16T00:27:49;1.67;;;0.90;;
73938;SDS011;62291;47.554;8.504;2023-07-16T00:30:16;1.75;;;0.70;;
73938;SDS011;62291;47.554;8.504;2023-07-16T00:32:41;4.15;;;1.15;;
73938;SDS011;62291;47.554;8.504;2023-07-16T00:35:07;2.03;;;1.02;;
73938;SDS011;62291;47.554;8.504;2023-07-16T00:37:33;1.20;;;0.75;;
73938;SDS011;62291;47.554;8.504;2023-07-16T00:39:59;2.55;;;1.08;;
73938;SDS011;62291;47.554;8.504;2023-07-16T00:42:25;3.53;;;1.23;;
73938;SDS011;62291;47.554;8.504;2023-07-16T00:44:51;2.72;;;0.95;;
73938;SDS011;62291;47.554;8.504;2023-07-16T00:47:17;1.40;;;0.75;;
73938;SDS011;62291;47.554;8.504;2023-07-16T00:49:42;1.30;;;0.85;;
73938;SDS011;62291;47.554;8.504;2023-07-16T00:52:09;2.33;;;1.10;;
73938;SDS011;62291;47.554;8.504;2023-07-16T00:54:39;2.30;;;0.90;;
73938;SDS011;62291;47.554;8.504;2023-07-16T00:57:04;1.75;;;0.98;;
73938;SDS011;62291;47.554;8.504;2023-07-16T00:59:30;2.40;;;1.15;;
73938;SDS011;62291;47.554;8.504;2023-07-16T01:01:56;1.73;;;1.02;;
73938;SDS011;62291;47.554;8.504;2023-07-16T01:04:22;1.40;;;0.80;;
73938;SDS011;62291;47.554;8.504;2023-07-16T01:06:48;2.85;;;1.15;;
73938;SDS011;62291;47.554;8.504;2023-07-16T01:09:19;3.23;;;1.07;;
73938;SDS011;62291;47.554;8.504;2023-07-16T01:11:46;1.52;;;1.00;;
73938;SDS011;62291;47.554;8.504;2023-07-16T01:14:13;2.38;;;1.10;;
73938;SDS011;62291;47.554;8.504;2023-07-16T01:16:41;1.70;;;0.90;;
73938;SDS011;62291;47.554;8.504;2023-07-16T01:19:07;2.28;;;1.00;;
73938;SDS011;62291;47.554;8.504;2023-07-16T01:21:35;2.25;;;1.00;;
73938;SDS011;62291;47.554;8.504;2023-07-16T01:29:40;2.25;;;0.90;;
73938;SDS011;62291;47.554;8.504;2023-07-16T01:32:17;1.50;;;0.80;;
73938;SDS011;62291;47.554;8.504;2023-07-16T01:34:43;2.40;;;0.98;;
73938;SDS011;62291;47.554;8.504;2023-07-16T01:37:09;2.22;;;1.10;;
73938;SDS011;62291;47.554;8.504;2023-07-16T01:39:35;1.88;;;1.23;;
73938;SDS011;62291;47.554;8.504;2023-07-16T01:42:01;2.30;;;0.90;;
73938;SDS011;62291;47.554;8.504;2023-07-16T01:44:27;2.88;;;0.90;;
73938;SDS011;62291;47.554;8.504;2023-07-16T01:49:31;3.03;;;1.02;;
73938;SDS011;62291;47.554;8.504;2023-07-16T01:51:57;4.30;;;0.90;;
73938;SDS011;62291;47.554;8.504;2023-07-16T01:54:24;3.17;;;0.90;;
73938;SDS011;62291;47.554;8.504;2023-07-16T01:56:50;1.85;;;1.00;;
73938;SDS011;62291;47.554;8.504;2023-07-16T01:59:16;1.58;;;0.93;;
73938;SDS011;62291;47.554;8.504;2023-07-16T02:01:41;2.00;;;1.10;;
73938;SDS011;62291;47.554;8.504;2023-07-16T02:04:07;1.75;;;1.00;;
73938;SDS011;62291;47.554;8.504;2023-07-16T02:06:32;1.90;;;1.10;;
73938;SDS011;62291;47.554;8.504;2023-07-16T02:08:58;3.13;;;0.88;;
73938;SDS011;62291;47.554;8.504;2023-07-16T02:11:24;1.52;;;1.10;;
73938;SDS011;62291;47.554;8.504;2023-07-16T02:13:49;1.88;;;1.10;;
73938;SDS011;62291;47.554;8.504;2023-07-16T02:16:15;3.90;;;1.35;;
73938;SDS011;62291;47.554;8.504;2023-07-16T02:18:41;2.17;;;1.30;;
73938;SDS011;62291;47.554;8.504;2023-07-16T02:21:06;2.75;;;1.05;;
73938;SDS011;62291;47.554;8.504;2023-07-16T02:23:32;5.05;;;1.20;;
73938;SDS011;62291;47.554;8.504;2023-07-16T02:25:58;1.92;;;1.00;;
73938;SDS011;62291;47.554;8.504;2023-07-16T02:28:23;2.38;;;1.20;;
73938;SDS011;62291;47.554;8.504;2023-07-16T02:30:49;2.08;;;1.08;;
73938;SDS011;62291;47.554;8.504;2023-07-16T02:33:16;4.10;;;1.23;;
73938;SDS011;62291;47.554;8.504;2023-07-16T02:35:45;2.35;;;1.00;;
73938;SDS011;62291;47.554;8.504;2023-07-16T02:38:12;1.83;;;0.90;;
73938;SDS011;62291;47.554;8.504;2023-07-16T02:40:42;1.25;;;1.00;;
73938;SDS011;62291;47.554;8.504;2023-07-16T02:43:09;2.80;;;1.10;;
73938;SDS011;62291;47.554;8.504;2023-07-16T02:45:34;3.35;;;1.40;;
73938;SDS011;62291;47.554;8.504;2023-07-16T02:48:00;2.50;;;1.10;;
73938;SDS011;62291;47.554;8.504;2023-07-16T02:50:26;2.40;;;1.23;;
73938;SDS011;62291;47.554;8.504;2023-07-16T02:52:51;2.20;;;1.40;;
73938;SDS011;62291;47.554;8.504;2023-07-16T02:55:17;2.40;;;1.30;;
73938;SDS011;62291;47.554;8.504;2023-07-16T02:57:43;1.67;;;1.20;;
73938;SDS011;62291;47.554;8.504;2023-07-16T03:00:08;2.28;;;1.15;;
73938;SDS011;62291;47.554;8.504;2023-07-16T03:02:34;2.75;;;1.25;;
73938;SDS011;62291;47.554;8.504;2023-07-16T03:05:00;1.80;;;1.23;;
73938;SDS011;62291;47.554;8.504;2023-07-16T03:07:26;4.88;;;1.42;;
73938;SDS011;62291;47.554;8.504;2023-07-16T03:09:51;2.25;;;0.90;;
73938;SDS011;62291;47.554;8.504;2023-07-16T03:12:17;4.10;;;1.17;;
73938;SDS011;62291;47.554;8.504;2023-07-16T03:14:43;3.63;;;1.38;;
73938;SDS011;62291;47.554;8.504;2023-07-16T03:17:08;1.73;;;1.05;;
73938;SDS011;62291;47.554;8.504;2023-07-16T03:19:34;3.40;;;1.40;;
73938;SDS011;62291;47.554;8.504;2023-07-16T03:22:00;3.03;;;1.20;;
73938;SDS011;62291;47.554;8.504;2023-07-16T03:24:26;1.90;;;0.93;;
73938;SDS011;62291;47.554;8.504;2023-07-16T03:26:51;1.80;;;1.15;;
73938;SDS011;62291;47.554;8.504;2023-07-16T03:29:17;1.63;;;1.00;;
73938;SDS011;62291;47.554;8.504;2023-07-16T03:31:43;4.80;;;1.95;;
73938;SDS011;62291;47.554;8.504;2023-07-16T03:34:08;4.45;;;1.65;;
73938;SDS011;62291;47.554;8.504;2023-07-16T03:36:34;6.05;;;1.40;;
73938;SDS011;62291;47.554;8.504;2023-07-16T03:39:00;1.80;;;1.60;;
73938;SDS011;62291;47.554;8.504;2023-07-16T03:41:25;2.20;;;1.55;;
73938;SDS011;62291;47.554;8.504;2023-07-16T03:43:51;4.63;;;2.10;;
73938;SDS011;62291;47.554;8.504;2023-07-16T03:46:17;2.58;;;1.58;;
73938;SDS011;62291;47.554;8.504;2023-07-16T03:48:42;3.40;;;1.63;;
73938;SDS011;62291;47.554;8.504;2023-07-16T03:51:08;4.07;;;1.77;;
73938;SDS011;62291;47.554;8.504;2023-07-16T03:53:33;4.32;;;2.17;;
73938;SDS011;62291;47.554;8.504;2023-07-16T03:55:59;3.47;;;1.58;;
73938;SDS011;62291;47.554;8.504;2023-07-16T03:58:25;5.50;;;1.60;;
73938;SDS011;62291;47.554;8.504;2023-07-16T04:00:52;3.35;;;1.83;;
73938;SDS011;62291;47.554;8.504;2023-07-16T04:03:18;4.10;;;1.70;;
73938;SDS011;62291;47.554;8.504;2023-07-16T04:05:44;3.45;;;1.50;;
73938;SDS011;62291;47.554;8.504;2023-07-16T04:08:10;4.10;;;1.60;;
73938;SDS011;62291;47.554;8.504;2023-07-16T04:10:35;5.30;;;2.00;;
73938;SDS011;62291;47.554;8.504;2023-07-16T04:13:01;5.30;;;1.70;;
73938;SDS011;62291;47.554;8.504;2023-07-16T04:15:27;4.13;;;1.77;;
73938;SDS011;62291;47.554;8.504;2023-07-16T04:17:52;4.22;;;1.65;;
73938;SDS011;62291;47.554;8.504;2023-07-16T04:20:18;2.53;;;1.52;;
73938;SDS011;62291;47.554;8.504;2023-07-16T04:22:44;4.22;;;2.13;;
73938;SDS011;62291;47.554;8.504;2023-07-16T04:25:09;3.25;;;1.83;;
73938;SDS011;62291;47.554;8.504;2023-07-16T04:27:35;3.70;;;2.05;;
73938;SDS011;62291;47.554;8.504;2023-07-16T04:30:02;2.90;;;2.15;;
73938;SDS011;62291;47.554;8.504;2023-07-16T04:32:28;3.83;;;2.25;;
73938;SDS011;62291;47.554;8.504;2023-07-16T04:34:54;3.45;;;2.00;;
73938;SDS011;62291;47.554;8.504;2023-07-16T04:37:19;3.88;;;1.70;;
73938;SDS011;62291;47.554;8.504;2023-07-16T04:39:45;2.38;;;1.60;;
73938;SDS011;62291;47.554;8.504;2023-07-16T04:42:11;3.53;;;2.40;;
73938;SDS011;62291;47.554;8.504;2023-07-16T04:44:37;4.20;;;2.10;;
73938;SDS011;62291;47.554;8.504;2023-07-16T04:47:02;5.53;;;1.73;;
73938;SDS011;62291;47.554;8.504;2023-07-16T04:49:28;4.50;;;2.60;;
73938;SDS011;62291;47.554;8.504;2023-07-16T04:51:54;3.85;;;2.28;;
73938;SDS011;62291;47.554;8.504;2023-07-16T04:54:19;3.53;;;1.55;;
73938;SDS011;62291;47.554;8.504;2023-07-16T04:56:45;2.35;;;1.23;;
73938;SDS011;62291;47.554;8.504;2023-07-16T04:59:11;3.60;;;1.35;;
73938;SDS011;62291;47.554;8.504;2023-07-16T05:01:36;3.45;;;1.08;;
73938;SDS011;62291;47.554;8.504;2023-07-16T05:04:02;4.03;;;1.60;;
73938;SDS011;62291;47.554;8.504;2023-07-16T05:06:28;3.20;;;1.30;;
73938;SDS011;62291;47.554;8.504;2023-07-16T05:08:54;5.32;;;1.40;;
73938;SDS011;62291;47.554;8.504;2023-07-16T05:11:19;2.05;;;1.10;;
73938;SDS011;62291;47.554;8.504;2023-07-16T05:13:45;2.67;;;1.10;;
73938;SDS011;62291;47.554;8.504;2023-07-16T05:16:11;3.05;;;0.93;;
73938;SDS011;62291;47.554;8.504;2023-07-16T05:18:36;1.60;;;0.80;;
73938;SDS011;62291;47.554;8.504;2023-07-16T05:21:02;2.95;;;0.93;;
73938;SDS011;62291;47.554;8.504;2023-07-16T05:23:28;3.33;;;0.90;;
73938;SDS011;62291;47.554;8.504;2023-07-16T05:25:53;1.88;;;1.00;;
73938;SDS011;62291;47.554;8.504;2023-07-16T05:28:19;2.47;;;1.00;;
73938;SDS011;62291;47.554;8.504;2023-07-16T05:30:45;2.97;;;0.90;;
73938;SDS011;62291;47.554;8.504;2023-07-16T05:33:11;3.40;;;0.93;;
73938;SDS011;62291;47.554;8.504;2023-07-16T05:35:37;3.58;;;1.25;;
73938;SDS011;62291;47.554;8.504;2023-07-16T05:38:04;1.55;;;0.82;;
73938;SDS011;62291;47.554;8.504;2023-07-16T05:40:29;1.60;;;0.80;;
73938;SDS011;62291;47.554;8.504;2023-07-16T05:42:55;2.08;;;0.90;;
73938;SDS011;62291;47.554;8.504;2023-07-16T05:45:21;3.78;;;1.05;;
73938;SDS011;62291;47.554;8.504;2023-07-16T05:47:46;4.70;;;1.13;;
73938;SDS011;62291;47.554;8.504;2023-07-16T05:50:12;2.35;;;1.13;;
73938;SDS011;62291;47.554;8.504;2023-07-16T05:52:38;2.83;;;1.10;;
73938;SDS011;62291;47.554;8.504;2023-07-16T05:55:03;1.67;;;0.95;;
73938;SDS011;62291;47.554;8.504;2023-07-16T05:57:29;2.95;;;1.10;;
73938;SDS011;62291;47.554;8.504;2023-07-16T05:59:55;2.78;;;1.30;;
73938;SDS011;62291;47.554;8.504;2023-07-16T06:02:21;3.00;;;0.90;;
73938;SDS011;62291;47.554;8.504;2023-07-16T06:04:47;2.88;;;0.70;;
73938;SDS011;62291;47.554;8.504;2023-07-16T06:07:12;2.50;;;1.10;;
73938;SDS011;62291;47.554;8.504;2023-07-16T06:09:38;3.88;;;1.00;;
73938;SDS011;62291;47.554;8.504;2023-07-16T06:12:04;2.33;;;1.00;;
73938;SDS011;62291;47.554;8.504;2023-07-16T06:14:30;3.80;;;1.17;;
73938;SDS011;62291;47.554;8.504;2023-07-16T06:16:55;2.38;;;1.00;;
73938;SDS011;62291;47.554;8.504;2023-07-16T06:19:21;3.03;;;1.30;;
73938;SDS011;62291;47.554;8.504;2023-07-16T06:21:47;4.70;;;0.90;;
73938;SDS011;62291;47.554;8.504;2023-07-16T06:24:12;2.50;;;1.27;;
73938;SDS011;62291;47.554;8.504;2023-07-16T06:26:38;2.15;;;1.02;;
73938;SDS011;62291;47.554;8.504;2023-07-16T06:29:04;2.42;;;1.00;;
73938;SDS011;62291;47.554;8.504;2023-07-16T06:31:29;2.85;;;1.02;;
73938;SDS011;62291;47.554;8.504;2023-07-16T06:33:55;2.13;;;0.95;;
73938;SDS011;62291;47.554;8.504;2023-07-16T06:36:21;3.10;;;1.10;;
73938;SDS011;62291;47.554;8.504;2023-07-16T06:38:46;3.65;;;0.85;;
73938;SDS011;62291;47.554;8.504;2023-07-16T06:41:12;1.88;;;1.00;;
73938;SDS011;62291;47.554;8.504;2023-07-16T06:43:38;1.80;;;0.90;;
73938;SDS011;62291;47.554;8.504;2023-07-16T06:46:03;2.65;;;0.70;;
73938;SDS011;62291;47.554;8.504;2023-07-16T06:48:29;2.25;;;1.00;;
73938;SDS011;62291;47.554;8.504;2023-07-16T06:50:55;2.88;;;0.90;;
73938;SDS011;62291;47.554;8.504;2023-07-16T06:53:20;2.58;;;1.10;;
73938;SDS011;62291;47.554;8.504;2023-07-16T06:55:49;3.05;;;1.20;;
73938;SDS011;62291;47.554;8.504;2023-07-16T06:58:16;2.45;;;0.95;;
73938;SDS011;62291;47.554;8.504;2023-07-16T07:00:42;3.28;;;1.17;;
73938;SDS011;62291;47.554;8.504;2023-07-16T07:03:08;4.72;;;1.00;;
73938;SDS011;62291;47.554;8.504;2023-07-16T07:05:33;3.30;;;0.98;;
73938;SDS011;62291;47.554;8.504;2023-07-16T07:08:01;3.97;;;1.10;;
73938;SDS011;62291;47.554;8.504;2023-07-16T07:10:27;2.42;;;0.85;;
73938;SDS011;62291;47.554;8.504;2023-07-16T07:12:52;5.10;;;1.15;;
73938;SDS011;62291;47.554;8.504;2023-07-16T07:15:18;2.35;;;1.10;;
73938;SDS011;62291;47.554;8.504;2023-07-16T07:17:44;1.88;;;1.00;;
73938;SDS011;62291;47.554;8.504;2023-07-16T07:20:11;4.05;;;1.23;;
73938;SDS011;62291;47.554;8.504;2023-07-16T07:22:38;3.25;;;1.02;;
73938;SDS011;62291;47.554;8.504;2023-07-16T07:25:04;6.68;;;1.35;;
73938;SDS011;62291;47.554;8.504;2023-07-16T07:27:30;4.10;;;1.20;;
73938;SDS011;62291;47.554;8.504;2023-07-16T07:29:56;2.80;;;1.00;;
73938;SDS011;62291;47.554;8.504;2023-07-16T07:32:22;3.40;;;1.10;;
73938;SDS011;62291;47.554;8.504;2023-07-16T07:34:48;3.22;;;1.17;;
73938;SDS011;62291;47.554;8.504;2023-07-16T07:37:15;4.50;;;1.35;;
73938;SDS011;62291;47.554;8.504;2023-07-16T07:39:40;4.25;;;1.00;;
73938;SDS011;62291;47.554;8.504;2023-07-16T07:42:06;3.05;;;1.00;;
73938;SDS011;62291;47.554;8.504;2023-07-16T07:44:32;5.78;;;1.50;;
73938;SDS011;62291;47.554;8.504;2023-07-16T07:46:58;3.75;;;1.40;;
73938;SDS011;62291;47.554;8.504;2023-07-16T07:49:24;5.82;;;1.50;;
73938;SDS011;62291;47.554;8.504;2023-07-16T07:51:49;3.22;;;1.20;;
73938;SDS011;62291;47.554;8.504;2023-07-16T07:54:15;5.05;;;1.33;;
73938;SDS011;62291;47.554;8.504;2023-07-16T07:56:41;3.65;;;1.30;;
73938;SDS011;62291;47.554;8.504;2023-07-16T07:59:07;4.10;;;1.30;;
73938;SDS011;62291;47.554;8.504;2023-07-16T08:01:33;4.70;;;1.20;;
73938;SDS011;62291;47.554;8.504;2023-07-16T08:03:59;4.63;;;1.55;;
73938;SDS011;62291;47.554;8.504;2023-07-16T08:06:25;3.65;;;1.33;;
73938;SDS011;62291;47.554;8.504;2023-07-16T08:08:51;4.45;;;1.30;;
73938;SDS011;62291;47.554;8.504;2023-07-16T08:11:17;3.97;;;1.38;;
73938;SDS011;62291;47.554;8.504;2023-07-16T08:13:42;3.42;;;1.27;;
73938;SDS011;62291;47.554;8.504;2023-07-16T08:16:08;3.65;;;1.27;;
73938;SDS011;62291;47.554;8.504;2023-07-16T08:18:34;5.82;;;1.98;;
73938;SDS011;62291;47.554;8.504;2023-07-16T08:21:00;4.05;;;1.10;;
73938;SDS011;62291;47.554;8.504;2023-07-16T08:23:26;5.28;;;1.40;;
73938;SDS011;62291;47.554;8.504;2023-07-16T08:25:51;3.13;;;1.30;;
73938;SDS011;62291;47.554;8.504;2023-07-16T08:28:17;4.40;;;1.25;;
73938;SDS011;62291;47.554;8.504;2023-07-16T08:30:45;2.17;;;1.05;;
73938;SDS011;62291;47.554;8.504;2023-07-16T08:33:12;3.20;;;1.55;;
73938;SDS011;62291;47.554;8.504;2023-07-16T08:35:39;6.30;;;1.70;;
73938;SDS011;62291;47.554;8.504;2023-07-16T08:38:05;4.85;;;1.30;;
73938;SDS011;62291;47.554;8.504;2023-07-16T08:40:34;5.68;;;1.73;;
73938;SDS011;62291;47.554;8.504;2023-07-16T08:43:01;4.85;;;1.35;;
73938;SDS011;62291;47.554;8.504;2023-07-16T08:45:30;3.88;;;1.30;;
73938;SDS011;62291;47.554;8.504;2023-07-16T08:47:56;3.20;;;1.33;;
73938;SDS011;62291;47.554;8.504;2023-07-16T08:50:22;2.58;;;1.10;;
73938;SDS011;62291;47.554;8.504;2023-07-16T08:52:49;3.95;;;1.38;;
73938;SDS011;62291;47.554;8.504;2023-07-16T08:55:16;3.17;;;1.00;;
73938;SDS011;62291;47.554;8.504;2023-07-16T08:57:42;2.45;;;1.20;;
73938;SDS011;62291;47.554;8.504;2023-07-16T09:00:08;3.10;;;1.10;;
73938;SDS011;62291;47.554;8.504;2023-07-16T09:02:35;2.85;;;0.95;;
73938;SDS011;62291;47.554;8.504;2023-07-16T09:05:01;5.07;;;1.45;;
73938;SDS011;62291;47.554;8.504;2023-07-16T09:07:29;4.78;;;1.20;;
73938;SDS011;62291;47.554;8.504;2023-07-16T09:09:58;4.53;;;1.25;;
73938;SDS011;62291;47.554;8.504;2023-07-16T09:12:25;6.55;;;1.30;;
73938;SDS011;62291;47.554;8.504;2023-07-16T09:14:51;4.68;;;1.40;;
73938;SDS011;62291;47.554;8.504;2023-07-16T09:17:23;3.92;;;1.38;;
73938;SDS011;62291;47.554;8.504;2023-07-16T09:19:50;4.22;;;1.25;;
73938;SDS011;62291;47.554;8.504;2023-07-16T09:22:19;5.32;;;1.15;;
73938;SDS011;62291;47.554;8.504;2023-07-16T09:24:45;3.95;;;1.30;;
73938;SDS011;62291;47.554;8.504;2023-07-16T09:27:12;5.15;;;1.30;;
73938;SDS011;62291;47.554;8.504;2023-07-16T09:29:39;6.38;;;1.63;;
73938;SDS011;62291;47.554;8.504;2023-07-16T09:32:05;6.05;;;1.08;;
73938;SDS011;62291;47.554;8.504;2023-07-16T09:34:31;3.97;;;1.15;;
73938;SDS011;62291;47.554;8.504;2023-07-16T09:36:57;4.05;;;1.48;;
73938;SDS011;62291;47.554;8.504;2023-07-16T09:39:24;4.93;;;1.35;;
73938;SDS011;62291;47.554;8.504;2023-07-16T09:41:51;4.97;;;1.48;;
73938;SDS011;62291;47.554;8.504;2023-07-16T09:44:17;5.63;;;1.17;;
73938;SDS011;62291;47.554;8.504;2023-07-16T09:46:44;3.15;;;1.27;;
73938;SDS011;62291;47.554;8.504;2023-07-16T09:49:10;4.68;;;1.10;;
73938;SDS011;62291;47.554;8.504;2023-07-16T09:51:36;2.67;;;1.10;;
73938;SDS011;62291;47.554;8.504;2023-07-16T09:54:03;2.85;;;1.23;;
73938;SDS011;62291;47.554;8.504;2023-07-16T09:56:32;6.78;;;1.45;;
73938;SDS011;62291;47.554;8.504;2023-07-16T09:59:09;4.90;;;1.40;;
73938;SDS011;62291;47.554;8.504;2023-07-16T10:01:39;3.17;;;1.00;;
73938;SDS011;62291;47.554;8.504;2023-07-16T10:04:15;2.88;;;1.10;;
73938;SDS011;62291;47.554;8.504;2023-07-16T10:06:53;5.95;;;1.20;;
73938;SDS011;62291;47.554;8.504;2023-07-16T10:09:42;3.10;;;1.10;;
73938;SDS011;62291;47.554;8.504;2023-07-16T10:12:18;4.60;;;1.10;;
73938;SDS011;62291;47.554;8.504;2023-07-16T10:14:48;3.85;;;1.40;;
73938;SDS011;62291;47.554;8.504;2023-07-16T10:17:29;3.85;;;1.15;;
73938;SDS011;62291;47.554;8.504;2023-07-16T10:19:59;3.13;;;1.10;;
73938;SDS011;62291;47.554;8.504;2023-07-16T10:25:00;2.70;;;1.30;;
73938;SDS011;62291;47.554;8.504;2023-07-16T10:27:27;4.07;;;1.40;;
73938;SDS011;62291;47.554;8.504;2023-07-16T10:29:54;5.35;;;1.50;;
73938;SDS011;62291;47.554;8.504;2023-07-16T10:32:20;3.63;;;1.30;;
73938;SDS011;62291;47.554;8.504;2023-07-16T10:34:46;3.38;;;1.20;;
73938;SDS011;62291;47.554;8.504;2023-07-16T10:37:11;3.65;;;1.58;;
73938;SDS011;62291;47.554;8.504;2023-07-16T10:39:47;3.50;;;1.33;;
73938;SDS011;62291;47.554;8.504;2023-07-16T10:42:17;5.00;;;1.35;;
73938;SDS011;62291;47.554;8.504;2023-07-16T10:44:45;3.00;;;1.20;;
73938;SDS011;62291;47.554;8.504;2023-07-16T10:47:20;4.38;;;1.25;;
73938;SDS011;62291;47.554;8.504;2023-07-16T10:49:48;2.47;;;1.23;;
73938;SDS011;62291;47.554;8.504;2023-07-16T10:52:15;4.25;;;1.48;;
73938;SDS011;62291;47.554;8.504;2023-07-16T10:54:40;2.85;;;1.20;;
73938;SDS011;62291;47.554;8.504;2023-07-16T10:57:06;3.08;;;1.40;;
73938;SDS011;62291;47.554;8.504;2023-07-16T10:59:32;4.10;;;1.52;;
73938;SDS011;62291;47.554;8.504;2023-07-16T11:01:58;3.35;;;1.35;;
73938;SDS011;62291;47.554;8.504;2023-07-16T11:04:23;6.15;;;1.38;;
73938;SDS011;62291;47.554;8.504;2023-07-16T11:06:50;3.17;;;1.20;;
73938;SDS011;62291;47.554;8.504;2023-07-16T11:09:15;4.10;;;1.63;;
73938;SDS011;62291;47.554;8.504;2023-07-16T11:11:41;5.15;;;1.35;;
73938;SDS011;62291;47.554;8.504;2023-07-16T11:14:07;2.63;;;1.10;;
73938;SDS011;62291;47.554;8.504;2023-07-16T11:16:33;3.38;;;1.35;;
73938;SDS011;62291;47.554;8.504;2023-07-16T11:19:06;3.50;;;1.40;;
73938;SDS011;62291;47.554;8.504;2023-07-16T11:21:36;5.50;;;1.35;;
73938;SDS011;62291;47.554;8.504;2023-07-16T11:24:14;4.18;;;1.30;;
73938;SDS011;62291;47.554;8.504;2023-07-16T11:26:53;6.60;;;1.30;;
73938;SDS011;62291;47.554;8.504;2023-07-16T11:29:23;5.38;;;1.40;;
73938;SDS011;62291;47.554;8.504;2023-07-16T11:31:49;5.38;;;1.67;;
73938;SDS011;62291;47.554;8.504;2023-07-16T11:34:16;3.97;;;1.08;;
73938;SDS011;62291;47.554;8.504;2023-07-16T11:36:44;3.67;;;1.40;;
73938;SDS011;62291;47.554;8.504;2023-07-16T11:39:12;3.42;;;1.40;;
73938;SDS011;62291;47.554;8.504;2023-07-16T11:41:38;3.50;;;1.48;;
73938;SDS011;62291;47.554;8.504;2023-07-16T11:44:04;7.30;;;1.40;;
73938;SDS011;62291;47.554;8.504;2023-07-16T11:46:33;4.45;;;1.33;;
73938;SDS011;62291;47.554;8.504;2023-07-16T11:48:59;3.60;;;1.60;;
73938;SDS011;62291;47.554;8.504;2023-07-16T11:51:26;5.10;;;2.22;;
73938;SDS011;62291;47.554;8.504;2023-07-16T11:53:52;6.25;;;1.55;;
73938;SDS011;62291;47.554;8.504;2023-07-16T11:56:19;4.57;;;1.23;;
73938;SDS011;62291;47.554;8.504;2023-07-16T11:58:45;6.10;;;1.38;;
73938;SDS011;62291;47.554;8.504;2023-07-16T12:01:10;2.72;;;1.42;;
73938;SDS011;62291;47.554;8.504;2023-07-16T12:03:36;3.90;;;1.50;;
73938;SDS011;62291;47.554;8.504;2023-07-16T12:06:02;3.20;;;1.33;;
73938;SDS011;62291;47.554;8.504;2023-07-16T12:08:27;4.80;;;1.55;;
73938;SDS011;62291;47.554;8.504;2023-07-16T12:10:54;3.28;;;1.30;;
73938;SDS011;62291;47.554;8.504;2023-07-16T12:13:20;6.15;;;1.70;;
73938;SDS011;62291;47.554;8.504;2023-07-16T12:15:46;2.33;;;1.27;;
73938;SDS011;62291;47.554;8.504;2023-07-16T12:18:11;4.57;;;1.77;;
73938;SDS011;62291;47.554;8.504;2023-07-16T12:20:37;6.45;;;1.80;;
73938;SDS011;62291;47.554;8.504;2023-07-16T12:23:04;2.72;;;1.20;;
73938;SDS011;62291;47.554;8.504;2023-07-16T12:25:30;3.95;;;1.48;;
73938;SDS011;62291;47.554;8.504;2023-07-16T12:27:55;5.85;;;1.70;;
73938;SDS011;62291;47.554;8.504;2023-07-16T12:30:23;2.70;;;1.45;;
73938;SDS011;62291;47.554;8.504;2023-07-16T12:32:49;4.65;;;1.45;;
73938;SDS011;62291;47.554;8.504;2023-07-16T12:35:15;4.35;;;1.52;;
73938;SDS011;62291;47.554;8.504;2023-07-16T12:37:41;3.63;;;1.63;;
73938;SDS011;62291;47.554;8.504;2023-07-16T12:40:07;3.40;;;1.25;;
73938;SDS011;62291;47.554;8.504;2023-07-16T12:42:33;4.43;;;1.73;;
73938;SDS011;62291;47.554;8.504;2023-07-16T12:45:00;3.35;;;1.65;;
73938;SDS011;62291;47.554;8.504;2023-07-16T12:47:26;3.95;;;1.20;;
73938;SDS011;62291;47.554;8.504;2023-07-16T12:49:52;4.53;;;1.40;;
73938;SDS011;62291;47.554;8.504;2023-07-16T12:52:17;3.20;;;1.20;;
73938;SDS011;62291;47.554;8.504;2023-07-16T12:54:43;5.65;;;1.60;;
73938;SDS011;62291;47.554;8.504;2023-07-16T12:57:09;3.72;;;1.60;;
73938;SDS011;62291;47.554;8.504;2023-07-16T12:59:34;3.03;;;1.30;;
73938;SDS011;62291;47.554;8.504;2023-07-16T13:02:00;2.92;;;1.20;;
73938;SDS011;62291;47.554;8.504;2023-07-16T13:04:26;3.83;;;1.50;;
73938;SDS011;62291;47.554;8.504;2023-07-16T13:06:52;2.95;;;1.17;;
73938;SDS011;62291;47.554;8.504;2023-07-16T13:09:18;4.53;;;1.40;;
73938;SDS011;62291;47.554;8.504;2023-07-16T13:11:43;3.60;;;1.63;;
73938;SDS011;62291;47.554;8.504;2023-07-16T13:14:09;3.58;;;1.30;;
73938;SDS011;62291;47.554;8.504;2023-07-16T13:16:34;2.65;;;1.25;;
73938;SDS011;62291;47.554;8.504;2023-07-16T13:19:00;3.67;;;1.40;;
73938;SDS011;62291;47.554;8.504;2023-07-16T13:21:26;3.67;;;1.60;;
73938;SDS011;62291;47.554;8.504;2023-07-16T13:23:51;4.78;;;1.50;;
73938;SDS011;62291;47.554;8.504;2023-07-16T13:26:17;4.03;;;1.38;;
73938;SDS011;62291;47.554;8.504;2023-07-16T13:28:43;3.53;;;1.52;;
73938;SDS011;62291;47.554;8.504;2023-07-16T13:31:08;3.35;;;1.85;;
73938;SDS011;62291;47.554;8.504;2023-07-16T13:33:34;5.00;;;1.55;;
73938;SDS011;62291;47.554;8.504;2023-07-16T13:36:01;4.15;;;1.63;;
73938;SDS011;62291;47.554;8.504;2023-07-16T13:38:29;4.20;;;1.50;;
73938;SDS011;62291;47.554;8.504;2023-07-16T13:40:55;4.03;;;1.70;;
73938;SDS011;62291;47.554;8.504;2023-07-16T13:43:21;2.85;;;1.42;;
73938;SDS011;62291;47.554;8.504;2023-07-16T13:45:47;4.93;;;1.40;;
73938;SDS011;62291;47.554;8.504;2023-07-16T13:48:12;3.88;;;1.30;;
73938;SDS011;62291;47.554;8.504;2023-07-16T13:50:38;3.15;;;1.40;;
73938;SDS011;62291;47.554;8.504;2023-07-16T13:53:04;3.13;;;1.58;;
73938;SDS011;62291;47.554;8.504;2023-07-16T13:55:30;3.35;;;1.40;;
73938;SDS011;62291;47.554;8.504;2023-07-16T13:57:55;4.22;;;1.60;;
73938;SDS011;62291;47.554;8.504;2023-07-16T14:00:21;3.65;;;1.67;;
73938;SDS011;62291;47.554;8.504;2023-07-16T14:02:47;4.05;;;1.80;;
73938;SDS011;62291;47.554;8.504;2023-07-16T14:05:13;5.13;;;1.52;;
73938;SDS011;62291;47.554;8.504;2023-07-16T14:07:39;5.10;;;2.00;;
73938;SDS011;62291;47.554;8.504;2023-07-16T14:10:05;3.50;;;1.67;;
73938;SDS011;62291;47.554;8.504;2023-07-16T14:12:32;4.43;;;1.80;;
73938;SDS011;62291;47.554;8.504;2023-07-16T14:14:59;3.33;;;1.55;;
73938;SDS011;62291;47.554;8.504;2023-07-16T14:17:25;3.65;;;1.70;;
73938;SDS011;62291;47.554;8.504;2023-07-16T14:19:51;4.07;;;1.90;;
73938;SDS011;62291;47.554;8.504;2023-07-16T14:22:17;4.00;;;1.45;;
73938;SDS011;62291;47.554;8.504;2023-07-16T14:24:42;5.68;;;1.58;;
73938;SDS011;62291;47.554;8.504;2023-07-16T14:27:08;3.30;;;1.60;;
73938;SDS011;62291;47.554;8.504;2023-07-16T14:29:34;3.13;;;1.50;;
73938;SDS011;62291;47.554;8.504;2023-07-16T14:32:00;6.15;;;2.00;;
73938;SDS011;62291;47.554;8.504;2023-07-16T14:34:26;3.28;;;1.60;;
73938;SDS011;62291;47.554;8.504;2023-07-16T14:36:52;2.60;;;1.75;;
73938;SDS011;62291;47.554;8.504;2023-07-16T14:39:18;2.88;;;1.75;;
73938;SDS011;62291;47.554;8.504;2023-07-16T14:41:44;2.67;;;1.50;;
73938;SDS011;62291;47.554;8.504;2023-07-16T14:44:10;3.90;;;1.83;;
73938;SDS011;62291;47.554;8.504;2023-07-16T14:46:35;4.72;;;1.77;;
73938;SDS011;62291;47.554;8.504;2023-07-16T14:49:02;4.03;;;1.60;;
73938;SDS011;62291;47.554;8.504;2023-07-16T14:51:28;2.92;;;1.70;;
73938;SDS011;62291;47.554;8.504;2023-07-16T14:53:55;3.42;;;1.95;;